Time;durP1;ratioP1;P1;durP2;ratioP2;P2;SDS_P1;SDS_P2;PMS_P1;PMS_P2;Temp;Humidity;BMP_temperature;BMP_pressure;BME280_temperature;BME280_humidity;BME280_pressure;Samples;Min_cycle;Max_cycle;Signal;HPM_P1;HPM_P2
2023/10/11 00:03:05;;;;;;;4.78;3.13;;;;;;;;;;4951374;28;20585;-86
2023/10/11 00:05:39;;;;;;;12.90;3.92;;;;;;;;;;4957734;28;20031;-84
2023/10/11 00:08:07;;;;;;;7.55;3.47;;;;;;;;;;4960513;28;20038;-86
2023/10/11 00:10:33;;;;;;;8.55;4.03;;;;;;;;;;4967767;28;20028;-85
2023/10/11 00:12:59;;;;;;;7.50;4.03;;;;;;;;;;4968455;28;20158;-85
2023/10/11 00:16:21;;;;;;;8.63;3.65;;;;;;;;;;4947503;28;20133;-84
2023/10/11 00:18:49;;;;;;;9.45;3.38;;;;;;;;;;4947304;29;20109;-84
2023/10/11 00:21:15;;;;;;;6.20;3.70;;;;;;;;;;4947529;28;20675;-85
2023/10/11 00:23:45;;;;;;;11.70;4.07;;;;;;;;;;4944974;28;20024;-85
2023/10/11 00:26:14;;;;;;;5.65;3.08;;;;;;;;;;4959455;28;20035;-83
2023/10/11 00:28:40;;;;;;;6.70;3.47;;;;;;;;;;4953272;28;20029;-84
2023/10/11 00:31:13;;;;;;;8.60;3.35;;;;;;;;;;4962991;28;20032;-85
2023/10/11 00:33:39;;;;;;;4.68;2.88;;;;;;;;;;4950446;28;20030;-87
2023/10/11 00:36:05;;;;;;;8.52;3.63;;;;;;;;;;4952923;28;20026;-84
2023/10/11 00:38:42;;;;;;;8.93;3.60;;;;;;;;;;4952842;28;20047;-86
2023/10/11 00:41:20;;;;;;;14.88;4.65;;;;;;;;;;4946189;28;20031;-84
2023/10/11 00:43:50;;;;;;;4.78;2.72;;;;;;;;;;4947168;28;20402;-84
2023/10/11 00:46:19;;;;;;;8.02;3.55;;;;;;;;;;4946318;28;20113;-84
2023/10/11 00:49:08;;;;;;;11.07;4.55;;;;;;;;;;4960173;28;20110;-84
2023/10/11 00:51:36;;;;;;;5.97;3.28;;;;;;;;;;4959072;28;20038;-85
2023/10/11 00:54:04;;;;;;;7.82;3.30;;;;;;;;;;4971922;28;20023;-84
2023/10/11 00:56:33;;;;;;;10.48;3.65;;;;;;;;;;4955782;28;20026;-84
2023/10/11 00:59:00;;;;;;;6.85;3.30;;;;;;;;;;4965571;28;20058;-84
2023/10/11 01:01:25;;;;;;;9.75;3.75;;;;;;;;;;4968722;28;20114;-84
2023/10/11 01:03:55;;;;;;;9.70;4.00;;;;;;;;;;4951999;28;20121;-84
2023/10/11 01:06:25;;;;;;;7.25;3.95;;;;;;;;;;4966386;28;20023;-84
2023/10/11 01:08:52;;;;;;;8.60;3.42;;;;;;;;;;4970096;28;20469;-85
2023/10/11 01:11:17;;;;;;;5.30;3.25;;;;;;;;;;4966973;28;20106;-85
2023/10/11 01:13:50;;;;;;;6.22;3.65;;;;;;;;;;4953847;28;20122;-84
2023/10/11 01:16:16;;;;;;;10.43;3.40;;;;;;;;;;4976863;28;20407;-85
2023/10/11 01:18:42;;;;;;;7.80;3.47;;;;;;;;;;4953870;28;20091;-84
2023/10/11 01:21:09;;;;;;;8.45;3.47;;;;;;;;;;4948724;28;20019;-85
2023/10/11 01:23:35;;;;;;;7.35;3.17;;;;;;;;;;4960111;28;20462;-87
2023/10/11 01:26:08;;;;;;;12.05;3.15;;;;;;;;;;4967975;28;20023;-86
2023/10/11 01:28:35;;;;;;;6.95;3.47;;;;;;;;;;4958825;28;20042;-86
2023/10/11 01:31:08;;;;;;;7.65;3.40;;;;;;;;;;4964659;28;20047;-85
2023/10/11 01:33:34;;;;;;;6.43;3.05;;;;;;;;;;4971917;28;20099;-87
2023/10/11 01:36:06;;;;;;;10.85;3.72;;;;;;;;;;4987323;28;20501;-87
2023/10/11 01:38:36;;;;;;;6.43;3.10;;;;;;;;;;4949598;28;20055;-86
2023/10/11 01:41:03;;;;;;;11.05;3.60;;;;;;;;;;4950680;28;20094;-87
2023/10/11 01:43:29;;;;;;;9.25;3.97;;;;;;;;;;4952762;28;20025;-86
2023/10/11 01:45:54;;;;;;;7.53;3.13;;;;;;;;;;4946062;28;20027;-86
2023/10/11 01:48:20;;;;;;;8.77;3.20;;;;;;;;;;4954026;28;20019;-86
2023/10/11 01:50:47;;;;;;;7.28;3.50;;;;;;;;;;4953864;28;20034;-85
2023/10/11 01:53:14;;;;;;;7.38;3.63;;;;;;;;;;4949596;29;20027;-87
2023/10/11 01:55:39;;;;;;;9.60;3.72;;;;;;;;;;4956267;28;20027;-86
2023/10/11 01:58:06;;;;;;;10.85;3.58;;;;;;;;;;4953985;29;20086;-86
2023/10/11 02:00:32;;;;;;;13.15;3.65;;;;;;;;;;4953313;29;20023;-87
2023/10/11 02:02:58;;;;;;;7.03;2.90;;;;;;;;;;4964117;28;20107;-86
2023/10/11 02:05:24;;;;;;;9.82;3.13;;;;;;;;;;4972957;28;20095;-87
2023/10/11 02:07:50;;;;;;;5.32;2.88;;;;;;;;;;4962063;28;20049;-87
2023/10/11 02:10:25;;;;;;;5.03;3.17;;;;;;;;;;4962523;28;20027;-87
2023/10/11 02:12:51;;;;;;;5.72;2.83;;;;;;;;;;4964627;28;20019;-88
2023/10/11 02:15:27;;;;;;;9.80;2.95;;;;;;;;;;4962641;28;20509;-86
2023/10/11 02:17:53;;;;;;;4.50;2.90;;;;;;;;;;4955643;28;20027;-88
2023/10/11 02:20:22;;;;;;;11.35;3.65;;;;;;;;;;4963903;28;20106;-87
2023/10/11 02:22:51;;;;;;;8.07;3.83;;;;;;;;;;4959610;28;20042;-87
2023/10/11 02:25:24;;;;;;;6.18;2.67;;;;;;;;;;4958636;28;20031;-87
2023/10/11 02:27:50;;;;;;;5.95;3.47;;;;;;;;;;4954309;28;20497;-87
2023/10/11 02:30:21;;;;;;;5.18;2.92;;;;;;;;;;4953026;28;20470;-87
2023/10/11 02:32:59;;;;;;;11.40;3.95;;;;;;;;;;4949598;28;20027;-86
2023/10/11 02:35:28;;;;;;;8.35;3.70;;;;;;;;;;4953028;28;20126;-86
2023/10/11 02:37:59;;;;;;;10.45;3.10;;;;;;;;;;4957802;28;20055;-86
2023/10/11 02:40:24;;;;;;;7.38;2.78;;;;;;;;;;4958417;28;20763;-86
2023/10/11 02:42:53;;;;;;;5.88;3.03;;;;;;;;;;4967012;28;20109;-87
2023/10/11 02:45:22;;;;;;;9.57;3.07;;;;;;;;;;4969968;28;20113;-86
2023/10/11 02:47:59;;;;;;;7.25;3.13;;;;;;;;;;4964798;28;20035;-86
2023/10/11 02:50:36;;;;;;;8.52;3.15;;;;;;;;;;4964197;28;20077;-86
2023/10/11 02:53:05;;;;;;;10.48;3.45;;;;;;;;;;4946994;29;20027;-86
2023/10/11 02:55:30;;;;;;;8.20;3.25;;;;;;;;;;4946646;28;20376;-87
2023/10/11 02:58:08;;;;;;;5.53;2.65;;;;;;;;;;4958067;28;20026;-87
2023/10/11 03:00:34;;;;;;;4.95;3.20;;;;;;;;;;4958076;28;20027;-87
2023/10/11 03:03:00;;;;;;;5.90;2.78;;;;;;;;;;4961000;28;20035;-87
2023/10/11 03:05:29;;;;;;;4.78;2.90;;;;;;;;;;4958131;28;20409;-86
2023/10/11 03:08:13;;;;;;;6.80;3.03;;;;;;;;;;4970307;28;20122;-86
2023/10/11 03:10:43;;;;;;;9.15;3.60;;;;;;;;;;4957838;28;20035;-86
2023/10/11 03:13:19;;;;;;;8.57;3.30;;;;;;;;;;4964354;28;20035;-86
2023/10/11 03:15:46;;;;;;;6.05;3.22;;;;;;;;;;4957016;28;20034;-85
2023/10/11 03:18:12;;;;;;;4.70;2.78;;;;;;;;;;4972782;28;20032;-85
2023/10/11 03:20:37;;;;;;;7.72;2.80;;;;;;;;;;4960677;28;20065;-85
2023/10/11 03:23:10;;;;;;;5.68;3.35;;;;;;;;;;4952124;28;20027;-85
2023/10/11 03:25:37;;;;;;;4.15;2.58;;;;;;;;;;4952384;28;20103;-86
2023/10/11 03:28:04;;;;;;;5.53;3.05;;;;;;;;;;4970228;28;20025;-86
2023/10/11 03:30:35;;;;;;;7.53;3.45;;;;;;;;;;4955059;28;20400;-86
2023/10/11 03:33:02;;;;;;;5.53;2.88;;;;;;;;;;4958451;28;20016;-86
2023/10/11 03:35:30;;;;;;;4.65;2.63;;;;;;;;;;4951874;28;20034;-86
2023/10/11 03:37:58;;;;;;;6.55;3.63;;;;;;;;;;4960084;28;20029;-87
2023/10/11 03:40:34;;;;;;;6.72;2.92;;;;;;;;;;4967717;28;20376;-87
2023/10/11 03:43:16;;;;;;;10.23;3.33;;;;;;;;;;4988758;28;20056;-86
2023/10/11 03:45:49;;;;;;;7.97;3.35;;;;;;;;;;4971634;28;20062;-86
2023/10/11 03:48:16;;;;;;;7.38;3.03;;;;;;;;;;4963241;28;20035;-87
2023/10/11 03:50:47;;;;;;;6.15;3.15;;;;;;;;;;4955274;28;20027;-85
2023/10/11 03:53:14;;;;;;;8.95;4.25;;;;;;;;;;4954285;28;20027;-86
2023/10/11 03:55:46;;;;;;;5.32;2.58;;;;;;;;;;4946231;28;20167;-86
2023/10/11 03:58:32;;;;;;;4.03;2.60;;;;;;;;;;4954366;28;20027;-85
2023/10/11 04:01:11;;;;;;;6.82;3.00;;;;;;;;;;4950962;28;20053;-87
2023/10/11 04:03:39;;;;;;;4.32;2.92;;;;;;;;;;4944712;28;20027;-86
2023/10/11 04:06:13;;;;;;;6.47;3.15;;;;;;;;;;4955191;28;20517;-87
2023/10/11 04:08:56;;;;;;;6.18;2.72;;;;;;;;;;4956201;28;20039;-87
2023/10/11 04:11:30;;;;;;;4.97;2.85;;;;;;;;;;4962156;28;20050;-86
2023/10/11 04:13:59;;;;;;;8.00;4.07;;;;;;;;;;4947348;28;20015;-87
2023/10/11 04:16:28;;;;;;;7.90;3.20;;;;;;;;;;4970601;28;20657;-86
2023/10/11 04:18:53;;;;;;;4.85;2.80;;;;;;;;;;4956631;28;20505;-86
2023/10/11 04:21:39;;;;;;;4.90;2.67;;;;;;;;;;4956074;28;20031;-87
2023/10/11 04:24:06;;;;;;;7.85;3.38;;;;;;;;;;4969108;28;20736;-87
2023/10/11 04:26:33;;;;;;;4.30;2.75;;;;;;;;;;4969730;28;20509;-87
2023/10/11 04:29:17;;;;;;;5.50;3.13;;;;;;;;;;4955037;28;20098;-86
2023/10/11 04:32:04;;;;;;;5.88;2.90;;;;;;;;;;4956748;28;20046;-86
2023/10/11 04:34:31;;;;;;;3.63;2.38;;;;;;;;;;4955248;28;20050;-86
2023/10/11 04:36:59;;;;;;;4.53;2.45;;;;;;;;;;4955099;28;20543;-87
2023/10/11 04:39:28;;;;;;;5.80;3.55;;;;;;;;;;4972380;28;20027;-86
2023/10/11 04:41:57;;;;;;;10.32;2.90;;;;;;;;;;4964735;28;20022;-86
2023/10/11 04:44:23;;;;;;;6.00;3.08;;;;;;;;;;4975882;28;20019;-86
2023/10/11 04:46:58;;;;;;;7.10;3.67;;;;;;;;;;4953742;28;20024;-86
2023/10/11 04:49:30;;;;;;;8.48;3.78;;;;;;;;;;4971008;28;20350;-86
2023/10/11 04:51:57;;;;;;;6.05;3.10;;;;;;;;;;4951740;29;20081;-86
2023/10/11 04:54:53;;;;;;;4.68;2.70;;;;;;;;;;4959287;28;20110;-86
2023/10/11 04:57:23;;;;;;;9.05;3.08;;;;;;;;;;4954846;28;20560;-87
2023/10/11 04:59:49;;;;;;;5.65;3.38;;;;;;;;;;4970404;28;21692;-85
2023/10/11 05:02:24;;;;;;;6.57;2.95;;;;;;;;;;4948669;28;20042;-88
2023/10/11 05:04:51;;;;;;;8.18;3.33;;;;;;;;;;4961437;28;20029;-88
2023/10/11 05:07:19;;;;;;;5.07;3.30;;;;;;;;;;4953971;28;20019;-87
2023/10/11 05:09:56;;;;;;;6.32;3.47;;;;;;;;;;4971947;28;20051;-87
2023/10/11 05:12:22;;;;;;;9.35;3.40;;;;;;;;;;4973785;28;20035;-87
2023/10/11 05:17:23;;;;;;;8.85;4.13;;;;;;;;;;4948273;28;20035;-87
2023/10/11 05:20:08;;;;;;;10.90;3.20;;;;;;;;;;4967548;28;20019;-87
2023/10/11 05:32:54;;;;;;;11.10;4.03;;;;;;;;;;4948751;28;20039;-87
2023/10/11 05:51:33;;;;;;;7.90;3.35;;;;;;;;;;4951542;28;20038;-86
2023/10/11 05:54:00;;;;;;;7.15;3.00;;;;;;;;;;4957202;28;20023;-85
2023/10/11 05:56:33;;;;;;;7.85;3.85;;;;;;;;;;4955996;28;20058;-86
2023/10/11 05:59:03;;;;;;;4.97;3.20;;;;;;;;;;4949526;28;20367;-87
2023/10/11 06:01:30;;;;;;;5.78;3.33;;;;;;;;;;4953167;28;20047;-86
2023/10/11 06:04:02;;;;;;;5.28;2.85;;;;;;;;;;4948895;28;20051;-86
2023/10/11 06:06:32;;;;;;;5.75;3.25;;;;;;;;;;4953187;28;20490;-86
2023/10/11 06:08:58;;;;;;;10.88;3.55;;;;;;;;;;4946975;28;20716;-86
2023/10/11 06:11:29;;;;;;;11.30;3.72;;;;;;;;;;4955205;28;20027;-87
2023/10/11 06:13:55;;;;;;;6.43;3.22;;;;;;;;;;4947058;29;20034;-86
2023/10/11 06:16:22;;;;;;;5.05;3.47;;;;;;;;;;4955149;28;20061;-87
2023/10/11 06:18:57;;;;;;;4.95;2.92;;;;;;;;;;4953961;28;20114;-87
2023/10/11 06:21:33;;;;;;;7.70;2.90;;;;;;;;;;4954803;28;20397;-86
2023/10/11 06:24:04;;;;;;;6.10;3.38;;;;;;;;;;4948325;28;20030;-86
2023/10/11 06:26:52;;;;;;;8.50;3.15;;;;;;;;;;4955931;28;20035;-88
2023/10/11 06:29:22;;;;;;;10.80;3.55;;;;;;;;;;4957191;28;20713;-87
2023/10/11 06:31:48;;;;;;;18.98;3.90;;;;;;;;;;4954482;28;20028;-87
2023/10/11 06:34:27;;;;;;;8.38;3.53;;;;;;;;;;4955088;28;20131;-87
2023/10/11 06:36:53;;;;;;;7.50;3.63;;;;;;;;;;4955274;28;20042;-87
2023/10/11 06:42:12;;;;;;;5.90;3.67;;;;;;;;;;4948547;29;20042;-84
2023/10/11 06:44:41;;;;;;;6.25;3.65;;;;;;;;;;4971233;28;20398;-84
2023/10/11 06:47:10;;;;;;;10.52;3.60;;;;;;;;;;4971191;28;20034;-84
2023/10/11 06:49:47;;;;;;;14.02;4.00;;;;;;;;;;4955357;28;20086;-84
2023/10/11 06:52:19;;;;;;;6.55;3.58;;;;;;;;;;4970538;28;20051;-87
2023/10/11 06:54:47;;;;;;;11.30;3.10;;;;;;;;;;4955576;28;20091;-86
2023/10/11 06:57:17;;;;;;;9.77;3.22;;;;;;;;;;4951834;29;20538;-83
2023/10/11 06:59:56;;;;;;;9.98;3.47;;;;;;;;;;4956287;28;20438;-83
2023/10/11 07:02:34;;;;;;;6.55;3.45;;;;;;;;;;4960737;28;20020;-84
2023/10/11 07:05:05;;;;;;;7.80;3.33;;;;;;;;;;4948635;28;20454;-85
2023/10/11 07:07:34;;;;;;;10.73;3.80;;;;;;;;;;4954567;28;20402;-84
2023/10/11 07:10:04;;;;;;;6.63;3.63;;;;;;;;;;4969208;28;20362;-85
2023/10/11 07:12:39;;;;;;;5.80;3.30;;;;;;;;;;4974854;28;20034;-84
2023/10/11 07:15:09;;;;;;;9.57;4.10;;;;;;;;;;4974738;28;20022;-84
2023/10/11 07:17:36;;;;;;;7.60;3.90;;;;;;;;;;4978823;28;20023;-84
2023/10/11 07:20:09;;;;;;;8.55;3.90;;;;;;;;;;4994891;28;20027;-84
2023/10/11 07:22:39;;;;;;;6.65;3.70;;;;;;;;;;4993690;28;20026;-85
2023/10/11 07:25:36;;;;;;;7.15;3.53;;;;;;;;;;4985201;28;20030;-86
2023/10/11 07:27:53;;;;;;;7.82;4.13;;;;;;;;;;4977950;28;20063;-86
2023/10/11 07:30:19;;;;;;;6.25;3.40;;;;;;;;;;4976252;28;20039;-85
2023/10/11 07:32:45;;;;;;;9.63;3.88;;;;;;;;;;4967074;29;20035;-86
2023/10/11 07:35:19;;;;;;;5.70;3.00;;;;;;;;;;4976221;28;20027;-87
2023/10/11 07:37:44;;;;;;;6.75;3.55;;;;;;;;;;4962846;28;20027;-88
2023/10/11 07:40:13;;;;;;;7.38;3.40;;;;;;;;;;4968614;28;20592;-88
2023/10/11 07:42:39;;;;;;;6.65;3.20;;;;;;;;;;4962943;28;20027;-88
2023/10/11 07:45:12;;;;;;;12.48;4.07;;;;;;;;;;4952235;28;20110;-87
2023/10/11 07:47:45;;;;;;;8.25;3.15;;;;;;;;;;4959259;29;20039;-87
2023/10/11 07:50:14;;;;;;;7.13;3.35;;;;;;;;;;4957848;28;20050;-85
2023/10/11 07:52:43;;;;;;;7.93;3.45;;;;;;;;;;4961075;28;20112;-88
2023/10/11 07:55:12;;;;;;;8.73;3.58;;;;;;;;;;4970126;28;20030;-87
2023/10/11 07:57:44;;;;;;;6.47;3.03;;;;;;;;;;4961525;28;20058;-87
2023/10/11 08:00:17;;;;;;;9.93;3.40;;;;;;;;;;4959807;28;20401;-87
2023/10/11 08:02:56;;;;;;;8.73;2.97;;;;;;;;;;4958728;28;20158;-87
2023/10/11 08:05:22;;;;;;;7.55;3.60;;;;;;;;;;4953834;28;20398;-85
2023/10/11 08:07:47;;;;;;;10.93;4.05;;;;;;;;;;4957695;28;20031;-86
2023/10/11 08:13:26;;;;;;;8.15;3.60;;;;;;;;;;4953655;28;20043;-86
2023/10/11 08:15:57;;;;;;;6.72;3.40;;;;;;;;;;4970750;28;20027;-86
2023/10/11 08:18:23;;;;;;;10.63;3.40;;;;;;;;;;4951892;28;20027;-85
2023/10/11 08:20:48;;;;;;;4.35;3.20;;;;;;;;;;4969814;28;20045;-86
2023/10/11 08:23:28;;;;;;;12.55;3.05;;;;;;;;;;4955688;28;20377;-86
2023/10/11 08:25:54;;;;;;;10.88;3.67;;;;;;;;;;4954097;28;20027;-86
2023/10/11 08:28:28;;;;;;;12.18;3.20;;;;;;;;;;4967898;28;20027;-89
2023/10/11 08:30:57;;;;;;;6.53;3.38;;;;;;;;;;4956243;28;20114;-85
2023/10/11 08:33:22;;;;;;;8.10;3.20;;;;;;;;;;4956961;28;20020;-85
2023/10/11 08:35:52;;;;;;;8.90;3.10;;;;;;;;;;4962211;28;20126;-87
2023/10/11 08:38:18;;;;;;;6.97;3.13;;;;;;;;;;4970182;28;20517;-87
2023/10/11 08:40:47;;;;;;;8.77;3.65;;;;;;;;;;4952385;28;20026;-85
2023/10/11 08:43:15;;;;;;;5.95;2.63;;;;;;;;;;4953620;28;20474;-87
2023/10/11 08:45:48;;;;;;;8.20;3.33;;;;;;;;;;4961546;28;20046;-87
2023/10/11 08:48:15;;;;;;;6.57;3.15;;;;;;;;;;4956959;28;20038;-86
2023/10/11 08:50:51;;;;;;;9.05;3.28;;;;;;;;;;4966357;28;20458;-85
2023/10/11 08:53:20;;;;;;;7.05;3.00;;;;;;;;;;4977177;28;20034;-85
2023/10/11 08:55:49;;;;;;;7.65;3.20;;;;;;;;;;4970595;28;20503;-86
2023/10/11 08:58:23;;;;;;;4.20;3.08;;;;;;;;;;4950224;28;20027;-86
2023/10/11 09:00:52;;;;;;;6.10;2.83;;;;;;;;;;4969611;28;20031;-85
2023/10/11 09:03:23;;;;;;;9.88;2.95;;;;;;;;;;4950423;28;20024;-85
2023/10/11 09:05:58;;;;;;;7.07;2.47;;;;;;;;;;4952833;28;20054;-86
2023/10/11 09:08:31;;;;;;;6.78;2.85;;;;;;;;;;4961397;28;20060;-86
2023/10/11 09:11:28;;;;;;;6.18;2.55;;;;;;;;;;4954621;28;20102;-86
2023/10/11 09:14:22;;;;;;;5.07;2.60;;;;;;;;;;4959284;28;20027;-85
2023/10/11 09:16:51;;;;;;;9.40;3.20;;;;;;;;;;4968820;28;20035;-86
2023/10/11 09:19:19;;;;;;;4.47;2.47;;;;;;;;;;4950401;28;20028;-86
2023/10/11 09:22:04;;;;;;;9.15;2.83;;;;;;;;;;4945636;28;20098;-88
2023/10/11 09:24:41;;;;;;;5.18;2.70;;;;;;;;;;4956783;29;20026;-87
2023/10/11 09:29:38;;;;;;;6.07;2.72;;;;;;;;;;4941776;28;20036;-86
2023/10/11 09:32:05;;;;;;;7.85;2.58;;;;;;;;;;4973864;28;20063;-86
2023/10/11 09:34:31;;;;;;;8.98;3.00;;;;;;;;;;4966208;28;20545;-88
2023/10/11 09:36:56;;;;;;;5.85;2.50;;;;;;;;;;4972542;28;20456;-86
2023/10/11 09:39:22;;;;;;;8.15;3.20;;;;;;;;;;4956666;28;20470;-85
2023/10/11 09:41:53;;;;;;;8.68;2.85;;;;;;;;;;4967739;28;20023;-86
2023/10/11 09:44:28;;;;;;;5.85;2.80;;;;;;;;;;4966184;28;20023;-86
2023/10/11 09:46:57;;;;;;;7.05;2.75;;;;;;;;;;4960324;28;20047;-86
2023/10/11 09:49:25;;;;;;;7.88;2.92;;;;;;;;;;4949139;28;20027;-87
2023/10/11 09:51:52;;;;;;;11.07;3.33;;;;;;;;;;4950666;28;20027;-87
2023/10/11 09:54:18;;;;;;;8.82;2.83;;;;;;;;;;4944422;29;20023;-86
2023/10/11 09:57:18;;;;;;;6.43;3.03;;;;;;;;;;4953941;28;20023;-86
2023/10/11 10:00:03;;;;;;;8.65;2.90;;;;;;;;;;4968909;28;20039;-87
2023/10/11 10:02:34;;;;;;;5.35;2.90;;;;;;;;;;4971897;28;20019;-86
2023/10/11 10:05:06;;;;;;;5.88;2.95;;;;;;;;;;4956327;28;20062;-86
2023/10/11 10:07:45;;;;;;;7.43;2.45;;;;;;;;;;4951013;28;20553;-86
2023/10/11 10:10:13;;;;;;;8.35;2.83;;;;;;;;;;4956338;28;20122;-86
2023/10/11 10:13:06;;;;;;;8.13;2.97;;;;;;;;;;4956846;28;20043;-85
2023/10/11 10:15:46;;;;;;;11.38;2.75;;;;;;;;;;4961093;28;20432;-85
2023/10/11 10:18:19;;;;;;;11.52;2.75;;;;;;;;;;4947332;29;20591;-85
2023/10/11 10:20:46;;;;;;;5.97;2.60;;;;;;;;;;4952299;28;20117;-86
2023/10/11 10:23:14;;;;;;;4.28;2.08;;;;;;;;;;4946629;28;20016;-85
2023/10/11 10:26:02;;;;;;;8.15;2.47;;;;;;;;;;4952017;28;20115;-86
2023/10/11 10:31:16;;;;;;;5.70;2.25;;;;;;;;;;4955932;28;20035;-85
2023/10/11 10:33:50;;;;;;;8.70;2.70;;;;;;;;;;4938839;28;20043;-86
2023/10/11 10:36:18;;;;;;;5.22;2.20;;;;;;;;;;4951924;28;20019;-85
2023/10/11 10:41:39;;;;;;;3.85;1.83;;;;;;;;;;4958955;28;20058;-86
2023/10/11 10:44:12;;;;;;;5.82;2.10;;;;;;;;;;4966412;28;20560;-86
2023/10/11 10:46:53;;;;;;;2.63;1.77;;;;;;;;;;4958825;28;20038;-86
2023/10/11 10:49:41;;;;;;;2.78;1.85;;;;;;;;;;4954806;29;20039;-85
2023/10/11 10:52:20;;;;;;;4.68;1.88;;;;;;;;;;4965140;28;20034;-87
2023/10/11 10:55:01;;;;;;;7.95;2.10;;;;;;;;;;4973624;28;20038;-86
2023/10/11 10:57:27;;;;;;;5.28;1.80;;;;;;;;;;4953968;28;20027;-85
2023/10/11 10:59:54;;;;;;;7.05;2.20;;;;;;;;;;4971822;28;20054;-86
2023/10/11 11:02:19;;;;;;;7.55;2.40;;;;;;;;;;4954156;28;20027;-85
2023/10/11 11:04:45;;;;;;;6.50;2.22;;;;;;;;;;4969769;28;20034;-86
2023/10/11 11:07:47;;;;;;;5.60;2.15;;;;;;;;;;4947664;29;20027;-85
2023/10/11 11:10:17;;;;;;;5.00;2.20;;;;;;;;;;4949026;28;20023;-86
2023/10/11 11:12:43;;;;;;;3.75;1.80;;;;;;;;;;4972274;28;20023;-86
2023/10/11 11:15:19;;;;;;;6.28;2.72;;;;;;;;;;4954645;28;20024;-85
2023/10/11 11:17:50;;;;;;;6.13;2.28;;;;;;;;;;4954873;29;20114;-85
2023/10/11 11:22:46;;;;;;;4.47;2.00;;;;;;;;;;4951853;28;20028;-85
2023/10/11 11:25:26;;;;;;;6.30;2.42;;;;;;;;;;4972635;28;20031;-85
2023/10/11 11:28:25;;;;;;;5.75;2.22;;;;;;;;;;4970179;28;20392;-85
2023/10/11 11:30:50;;;;;;;10.15;2.47;;;;;;;;;;4960490;28;20035;-85
2023/10/11 11:33:34;;;;;;;4.93;2.25;;;;;;;;;;4958514;28;20030;-85
2023/10/11 11:35:59;;;;;;;8.00;2.63;;;;;;;;;;4973781;28;20583;-85
2023/10/11 11:38:29;;;;;;;9.10;2.58;;;;;;;;;;4952024;28;20099;-86
2023/10/11 11:41:03;;;;;;;4.57;2.30;;;;;;;;;;4944631;28;20045;-85
2023/10/11 11:43:33;;;;;;;6.32;2.28;;;;;;;;;;4946514;28;20021;-87
2023/10/11 11:46:01;;;;;;;4.18;2.20;;;;;;;;;;4951996;28;20130;-85
2023/10/11 11:48:27;;;;;;;11.20;2.20;;;;;;;;;;4955110;28;20032;-86
2023/10/11 11:50:56;;;;;;;6.55;2.60;;;;;;;;;;4958853;28;20103;-85
2023/10/11 11:53:21;;;;;;;7.10;3.08;;;;;;;;;;4959496;28;20051;-85
2023/10/11 11:55:46;;;;;;;7.65;2.65;;;;;;;;;;4963054;28;20003;-89
2023/10/11 11:58:15;;;;;;;6.22;2.13;;;;;;;;;;4967138;28;20110;-86
2023/10/11 12:00:45;;;;;;;4.78;2.20;;;;;;;;;;4975331;28;20113;-87
2023/10/11 12:03:11;;;;;;;4.68;2.15;;;;;;;;;;4971278;28;20102;-85
2023/10/11 12:05:42;;;;;;;4.63;2.10;;;;;;;;;;4962858;28;20027;-85
2023/10/11 12:08:18;;;;;;;8.90;2.25;;;;;;;;;;4958410;28;20031;-86
2023/10/11 12:10:54;;;;;;;4.90;1.50;;;;;;;;;;4950119;28;20032;-86
2023/10/11 12:13:26;;;;;;;3.40;1.80;;;;;;;;;;4973960;28;20501;-86
2023/10/11 12:15:55;;;;;;;4.25;2.20;;;;;;;;;;4972201;28;20034;-86
2023/10/11 12:18:23;;;;;;;5.13;2.05;;;;;;;;;;4959140;28;20090;-85
2023/10/11 12:20:48;;;;;;;5.15;2.00;;;;;;;;;;4958083;28;20031;-86
2023/10/11 12:23:13;;;;;;;6.60;2.00;;;;;;;;;;4958757;28;20090;-85
2023/10/11 12:25:40;;;;;;;6.63;2.35;;;;;;;;;;4958386;28;20046;-87
2023/10/11 12:28:06;;;;;;;4.07;2.03;;;;;;;;;;4958933;28;20035;-86
2023/10/11 12:30:35;;;;;;;3.97;2.00;;;;;;;;;;4957579;28;20449;-85
2023/10/11 12:33:07;;;;;;;3.58;1.90;;;;;;;;;;4955438;28;20027;-86
2023/10/11 12:35:39;;;;;;;2.70;1.40;;;;;;;;;;4943939;28;20038;-85
2023/10/11 12:38:05;;;;;;;2.25;1.52;;;;;;;;;;4959056;28;20027;-85
2023/10/11 12:40:34;;;;;;;5.35;1.98;;;;;;;;;;4958451;28;20075;-86
2023/10/11 12:43:00;;;;;;;4.88;2.05;;;;;;;;;;4941093;28;20031;-87
2023/10/11 12:45:26;;;;;;;6.18;1.90;;;;;;;;;;4953084;29;20469;-87
2023/10/11 12:47:51;;;;;;;3.85;1.70;;;;;;;;;;4958063;28;20026;-86
2023/10/11 12:50:17;;;;;;;5.57;1.75;;;;;;;;;;4957829;28;20023;-85
2023/10/11 12:52:46;;;;;;;8.40;1.95;;;;;;;;;;4950915;29;20035;-86
2023/10/11 12:55:12;;;;;;;2.90;1.60;;;;;;;;;;4952705;28;20029;-86
2023/10/11 12:57:39;;;;;;;10.85;1.90;;;;;;;;;;4957010;28;20070;-85
2023/10/11 13:00:28;;;;;;;3.55;1.92;;;;;;;;;;4970328;28;20684;-86
2023/10/11 13:02:58;;;;;;;3.38;2.00;;;;;;;;;;4968389;28;20081;-86
2023/10/11 13:05:26;;;;;;;2.47;1.70;;;;;;;;;;4972229;28;20362;-85
2023/10/11 13:07:54;;;;;;;3.33;1.80;;;;;;;;;;4941160;28;20497;-86
2023/10/11 13:10:22;;;;;;;5.57;1.67;;;;;;;;;;4953715;29;20039;-87
2023/10/11 13:12:50;;;;;;;6.63;1.85;;;;;;;;;;4947079;28;20055;-87
2023/10/11 13:18:37;;;;;;;5.05;2.20;;;;;;;;;;4947615;28;20038;-86
2023/10/11 13:21:16;;;;;;;4.63;2.00;;;;;;;;;;4944183;28;20462;-86
2023/10/11 13:23:43;;;;;;;3.72;1.70;;;;;;;;;;4941435;28;20106;-85
2023/10/11 13:26:08;;;;;;;3.38;1.65;;;;;;;;;;4948899;29;20027;-87
2023/10/11 13:28:41;;;;;;;5.95;1.67;;;;;;;;;;4973838;28;20034;-86
2023/10/11 13:31:09;;;;;;;4.10;2.40;;;;;;;;;;4976546;28;20068;-86
2023/10/11 13:33:35;;;;;;;8.98;2.22;;;;;;;;;;4954283;28;20363;-86
2023/10/11 13:36:05;;;;;;;6.18;1.77;;;;;;;;;;4961611;28;20038;-86
2023/10/11 13:38:31;;;;;;;6.00;2.05;;;;;;;;;;4966205;28;20023;-85
2023/10/11 13:40:58;;;;;;;4.57;1.70;;;;;;;;;;4949529;28;20030;-86
2023/10/11 13:43:24;;;;;;;3.45;1.60;;;;;;;;;;4967755;28;20030;-86
2023/10/11 13:45:56;;;;;;;3.80;1.50;;;;;;;;;;4955529;28;20039;-86
2023/10/11 13:48:36;;;;;;;3.35;1.38;;;;;;;;;;4946883;28;20027;-86
2023/10/11 13:51:04;;;;;;;3.53;1.60;;;;;;;;;;4947267;29;20027;-85
2023/10/11 13:53:30;;;;;;;6.40;1.67;;;;;;;;;;4968178;28;20571;-85
2023/10/11 13:56:09;;;;;;;4.63;1.92;;;;;;;;;;4964055;28;20712;-84
2023/10/11 13:58:35;;;;;;;3.92;2.00;;;;;;;;;;4964372;28;20109;-85
2023/10/11 14:01:13;;;;;;;3.28;1.63;;;;;;;;;;4954046;28;20062;-86
2023/10/11 14:03:45;;;;;;;3.10;1.73;;;;;;;;;;4981853;28;20022;-87
2023/10/11 14:06:22;;;;;;;2.08;1.52;;;;;;;;;;4970258;28;20031;-86
2023/10/11 14:08:48;;;;;;;5.15;2.15;;;;;;;;;;4955105;28;20067;-86
2023/10/11 14:11:17;;;;;;;4.38;1.98;;;;;;;;;;4945475;28;20023;-85
2023/10/11 14:14:00;;;;;;;4.15;1.58;;;;;;;;;;4952647;29;20030;-85
2023/10/11 14:16:31;;;;;;;3.22;1.85;;;;;;;;;;4955343;28;20016;-85
2023/10/11 14:18:56;;;;;;;2.35;1.55;;;;;;;;;;4943908;28;20148;-85
2023/10/11 14:21:24;;;;;;;4.20;1.20;;;;;;;;;;4955798;28;20461;-86
2023/10/11 14:23:51;;;;;;;3.08;1.52;;;;;;;;;;4955211;28;20055;-85
2023/10/11 14:26:17;;;;;;;3.72;2.00;;;;;;;;;;4953130;28;20043;-85
2023/10/11 14:28:43;;;;;;;3.70;1.80;;;;;;;;;;4943973;29;20091;-87
2023/10/11 14:31:22;;;;;;;6.28;2.25;;;;;;;;;;4959746;28;20082;-85
2023/10/11 14:33:49;;;;;;;3.38;1.70;;;;;;;;;;4948282;28;20042;-85
2023/10/11 14:36:20;;;;;;;6.32;2.20;;;;;;;;;;4955841;28;20019;-84
2023/10/11 14:38:46;;;;;;;3.20;1.70;;;;;;;;;;4966327;28;20509;-87
2023/10/11 14:41:14;;;;;;;9.27;1.90;;;;;;;;;;4945621;28;20028;-86
2023/10/11 14:43:40;;;;;;;3.47;1.63;;;;;;;;;;4969776;28;20023;-86
2023/10/11 14:46:06;;;;;;;6.13;2.75;;;;;;;;;;4968897;28;20046;-86
2023/10/11 14:48:33;;;;;;;3.25;1.92;;;;;;;;;;4969017;28;20129;-86
2023/10/11 14:50:59;;;;;;;3.35;1.85;;;;;;;;;;4962352;28;20032;-85
2023/10/11 14:53:24;;;;;;;6.30;2.10;;;;;;;;;;4969785;28;20022;-84
2023/10/11 14:55:54;;;;;;;3.45;1.65;;;;;;;;;;4954155;28;20482;-85
2023/10/11 14:58:19;;;;;;;2.67;1.58;;;;;;;;;;4946052;29;20038;-85
2023/10/11 15:00:46;;;;;;;5.22;1.70;;;;;;;;;;4967007;28;20031;-85
2023/10/11 15:03:13;;;;;;;3.95;1.90;;;;;;;;;;4945817;28;20023;-87
2023/10/11 15:05:38;;;;;;;3.63;1.58;;;;;;;;;;4949740;28;20031;-85
2023/10/11 15:08:06;;;;;;;3.35;1.90;;;;;;;;;;4968126;28;20038;-86
2023/10/11 15:10:34;;;;;;;4.63;1.63;;;;;;;;;;4953572;29;20035;-84
2023/10/11 15:13:06;;;;;;;3.10;1.60;;;;;;;;;;4949337;28;20031;-86
2023/10/11 15:15:32;;;;;;;4.72;1.73;;;;;;;;;;4965804;28;20159;-84
2023/10/11 15:18:03;;;;;;;6.18;2.00;;;;;;;;;;4956122;28;20046;-85
2023/10/11 15:20:31;;;;;;;4.53;2.03;;;;;;;;;;4972137;28;20109;-85
2023/10/11 15:23:00;;;;;;;7.32;2.15;;;;;;;;;;4954213;28;20057;-85
2023/10/11 15:25:25;;;;;;;4.55;1.55;;;;;;;;;;4952636;29;20063;-84
2023/10/11 15:28:05;;;;;;;2.50;1.70;;;;;;;;;;4978910;28;20027;-84
2023/10/11 15:30:31;;;;;;;6.07;1.90;;;;;;;;;;4954844;28;20032;-84
2023/10/11 15:32:56;;;;;;;7.85;1.98;;;;;;;;;;4960621;28;20031;-84
2023/10/11 15:35:22;;;;;;;3.92;1.55;;;;;;;;;;4955479;28;20437;-87
2023/10/11 15:37:47;;;;;;;3.15;1.88;;;;;;;;;;4973924;28;20038;-86
2023/10/11 15:40:14;;;;;;;3.40;1.92;;;;;;;;;;4972350;29;20054;-88
2023/10/11 15:42:40;;;;;;;1.85;1.65;;;;;;;;;;4970024;28;20050;-87
2023/10/11 15:45:06;;;;;;;3.35;1.73;;;;;;;;;;4969540;28;20059;-87
2023/10/11 15:47:35;;;;;;;6.75;1.90;;;;;;;;;;4968771;28;20098;-86
2023/10/11 15:50:00;;;;;;;2.30;1.63;;;;;;;;;;4973642;28;20034;-86
2023/10/11 15:52:25;;;;;;;3.88;2.03;;;;;;;;;;4992704;28;20019;-86